SMRA40 UAOL 191500
AAXX 19151
40022 42565 33101 10119 20050 40107 53036 83200 333 83830=
40025 42560 63104 10120 20030 40107 52034 86800 333 83826 85630=
40030 42570 42701 10094 20025 40127 52040 84900 333 82926 83630=
40080 42560 22710 10086 2135 39384 40099 52040 82200 333 82830=
40417 42960 21410 10202 20020 30137 40152 82030 333 59015 82360=
40606 41550 81603 10058 20051 40083 52003 76166 888// 333 83830 85632=
40608 41558 80902 10082 20064 40083 52026 71062 888// 333 82825 88630=
40611 41540 82404 10030 20025 40144 53021 76266 888// 333 84822 85625=
40616 41559 80000 10073 20060 40086 57002 76166 8572/ 333 85725 88460=
40621 42560 41002 10100 20056 40100 52036 84500 333 84630=
40622 41556 81104 10065 20037 40072 53017 76062 8682/ 333 82820 86624 88460=
40623 41558 81102 10089 20031 40111 56001 76166 8652/ 333 86626 88460=
40632 41540 52203 10110 20055 40073 53020 70622 85500 333 85630=
40633 41550 81803 10120 20055 40073 53006 70262 885// 333 88630=
40634 41640 82407 10100 20070 40049 54000 70622 888// 333 88483 84640=
40645 41/07 92504 10154 20058 40074 52011 70642 333 89/03=
40646 41530 71806 10112 20063 40042 53002 70600 87500 333 87630=
40650 41525 71905 10157 21002 40087 52018 70611 87800 333 82830 86633=
40655 41905 02310 10157 20005 40082 52017 73233=
40656 41/04 92409 10163 20009 40098 52025 73230 333 89/03=
40657 41/03 92414 10170 20014 40097 52036 73530 333 89/02=
40658 41/08 92711 10134 20027 40091 52024 73232 333 89/03=
40662 41650 82504 10160 20039 40086 52031 70662 885// 333 88635=
40664 41530 82008 10172 20027 40096 52019 70700 888// 333 83830 88635=
40666 41506 81710 10190 20095 49984 54000 70982 888// 333 84830 85633=
40670 41910 02112 10168 20020 40127 52029 70700=
40672 41903 81904 10170 21008 40113 52014 70644 8801/ 333 88460=
40674 41912 42708 10187 21009 40118 52029 70711 84010 333 84460=
40675 41956 00905 10184 20034 40103 57013 70600=
40676 41930 73003 10192 20015 40121 52039 70622 87020 333 87460=
40680 41504 51520 10198 20072 40099 53010 73182 85800 333 82830 84633=
40689 41530 81812 10192 20012 40104 54000 70721 888// 333 83830 85640=
40690 41660 51209 10193 20112 40104 53008 70132 83130 333 83835=
40691 42660 80610 10190 20150 40140 58002 85231 333 85840 83360=
40719 41857 33004 10092 20075 30106 40095 52015 71000 83050 333 10242 83358 555 10084 29089 66666 00110 10112 20108 30104 50124 90134=
40721 42960 01410 10165 21058 39566 40100 55004 333 10207 555 10078 29021 66666 00116 10116 20100 30096 50098 90132=
40858 42970 11605 10195 20118 30147 40155 53003 81030 333 10256 81360 555 10152 29061 66666 00210 10206 20188 30186 50195 90212=
40872 42960 01404 10214 20141 30164 40169 58002 333 10234 555 10172 29063 66666 00210 10204 20192 30192 50200 90226=
40877 42960 00000 10179 20033 39592 40140 53010 333 10237 555 10110 29038 66666 00220 10238 20216 30198 50214 90232=
40898 42960 02003 10220 20164 30168 40177 53015 222// 00215 10401 333 10244 555 10186 29071 66666 00228 10258 20254 30244 50258 90278=
41002 19151 99318 70748 46/// /3104 10151 40256 53014 91450 22200 00210 11106 20401 303// 41105 70028 333 91206 555 11041 22042 31350 42806 61449 308040 304035 301039 312043 319042 317042=
41004 19151 99325 70791 46/// /2407 10117 20029 30260 40264 91450 22075 8//08 91449=
41008 19151 99314 70809 46/// /2705 10067 21042 40281 53013 91450 22200 00104 11101 20301 306// 41101 70006 333 91206 555 11052 22054 31440 42706 61449 266050 266049 271048 265043 264043 271043=
41009 19151 99285 70802 46/// /3406 10154 20104 30270 40274 53014 91500 22200 00212 333 91208 555 11069 22073 8//07 91452=
41013 19151 99334 70777 46/// /2607 10108 20022 30251 40255 91440 22200 00183 333 91209 555 11073 22078 8//08 91431=
41025 19151 99350 70754 46/// /2808 10085 20014 30242 40246 91440 333 91209 555 11082 22087 8//08 91434=
41032 42960 02705 10260 20090 39787 40137 333 58024=
41040 19151 99146 70531 46/// /0907 1//// 30166 40170 91450 22200 11004 20703 307// 41003 70018 333 91209 555 11075 22080 8//07 91442=
41041 19151 99143 70461 46/// /0706 1//// 30172 40176 50000 91500 333 91209 555 11068 22072 8//07 91459=
41043 19151 99211 70649 46/// ///// 10230 30191 40195 51013 91500=
41044 19151 99216 70586 46/// /1603 10245 20209 30197 40201 51006 91500 333 91205 555 11030 22032 8//04 91451=
41046 19151 99238 70684 46/// /0208 10237 20188 30212 40216 91440 22200 00259 333 91211 555 11092 22098 8//09 91439=
41047 19151 99275 70715 46/// /0107 10191 30241 40245 51012 91500 333 91210 555 11072 22077 8//08 91457=
41048 19151 99319 70696 46/// /2907 10172 20081 30234 40238 91440 22200 00213 333 91210 555 11074 22079 8//08 91431=
41108 19151 99337 70780 46/// ///// 1//// 91500 22200 00072 11101 20401 312// 41101 70007=
41110 19151 99341 70777 46/// ///// 1//// 91459 22200 00076 11101 21001 310// 41101 70005=
41113 19151 99284 70805 46/// ///// 1//// 91453 22200 00154 11102 20901 309// 41101 70008=
41117 19151 99300 70811 46/// ///// 1//// 91452 22200 00119 11102 20901 307// 41101 70010=
41159 19151 99342 70769 46/// ///// 1//// 91500 22200 00139 11102 21002 310// 41101 70012=
42001 19151 99259 70897 46/// /0605 10188 20112 30258 40262 91450 22200 00239 10702 20501 304// 40702 70009 333 91207 555 11053 22056 8//06 91445=
42002 19151 99261 70938 46/// /1110 10195 40236 54000 91450 22200 00224 10503 20503 70013 333 91212 555 11102 22107 31441 41112 61449 110097 111095 106095 105094 111088 113087=
42019 19151 99279 70954 46/// /0811 10186 20051 40230 57003 91450 22200 00214 10603 20603 70015 333 91214 555 11117 22123 31444 40814 61449 084109 085102 084100 085097 084095 088089=
42039 19151 99288 70860 46/// /0504 10122 20050 40282 51011 91450 22200 00206 10401 20401 70004 333 91206 555 11039 22040 31447 40406 61449 053038 040039 037038 036039 033041 030033 80205 91430=
42040 19151 99292 70882 46/// /0404 10127 20050 30284 40288 91440 22200 00205 333 91205 555 11038 22040 8//05 91432=
42055 19151 99221 70940 46/// /1111 10231 20170 40217 53008 91450 22200 00241 10704 20703 304// 40801 70019 333 91213 555 11115 22122 31434 41113 61449 109107 108110 107108 102107 104111 101113 81012 91401=
42057 19151 99169 70814 46/// /0409 10264 20227 30170 40174 91440 22200 00270 333 91212 555 11102 22109 8//11 91438=
42058 19151 99149 70749 46/// /0709 1//// 30157 40161 51016 91500 22200 00269 333 91211 555 11096 22103 8//10 91456=
42079 31994 01602 10100 20037 39178 48503 70540 333 58006=
42098 19151 99276 70829 46/// ///// 1//// 91500 22200 00141 10301 20301 70006=
42377 31994 00000 10150 20128 40164 71000 333 58006=
42474 31994 00000 10164 20120 40168 71000 333 58005=
43331 32596 53603 10234 20180 30090 40133 83531 333 58004=
43588 41457 70205 10280 20238 30108 40109 70522 82208 333 58004 82818 87276=
44007 19151 99435 70701 46/// /0000 11016 21059 40146 51008 91450 22200 00020 11001 70005 333 91201 555 31403 40101 61449 165001 337003 311002 027007 017006 357004=
44008 19151 99405 70692 46/// ///06 10006 40159 52014 91450 22200 00064 10704 20502 326// 40703 70020 333 91208 555 11063 22065 8//07 91447=
44009 19151 99385 70747 46/// /2404 10026 21031 40213 51013 91450 22200 00046 11001 20301 312// 41001 70007 333 91205 555 11041 22042 31428 42405 61449 240040 247038 246040 247039 245037 257034=
44013 19151 99423 70707 46/// /2606 11019 40148 51012 91450 22200 00047 10901 20301 309// 40901 70006 333 91207 555 11061 22064 31429 42608 61449 261059 259061 269062 271065 273063 272056=
44014 19151 99366 70748 46/// /2506 10065 20009 40222 51012 91450 22200 00162 11102 20401 310// 41102 70012 333 91208 555 11062 22064 31425 42608 61449 253059 258062 262061 266058 273061 269057 82607 91425=
44020 19151 99414 70702 46/// /2808 11025 21050 40157 52007 91450 22200 00022 10301 20301 70005 333 91210 555 11086 22090 31420 42810 61449 282082 284082 284084 282078 285077 288079=
44025 19151 99403 70732 46/// /2810 10017 40186 53008 91450 22200 91442=
44027 19151 99443 70673 46/// ///// 1//// 40133 53009 91450 22200 00071 10401 70006=
44039 19151 99411 70727 46/// /2808 11015 91445 22200 1//01 70005 333 91209 555 11088 22088=
44042 19151 99380 70763 46/// /3503 10002 40208 91440 333 91204 555 11036 22039=
44056 19151 99362 70757 46/// ///// 1//// 91500 22200 00038 11101 21001 308// 41101 70007=
44058 19151 99376 70763 46/// /3201 10018 40247 91450 333 91202 555 11016 22018=
44062 19151 99386 70764 46/// /2302 10005 40215 91440 333 91203 555 11025 22028=
44064 19151 99370 70761 46/// /2605 10015 40221 91440 333 91207 555 11061 22067=
44065 19151 99404 70737 46/// /2708 10009 21068 40185 52006 91450 22200 00046 11101 20301 313// 41101 70006 333 91209 555 11082 22086 31356 42610 61449 265077 261071 261071 260073 262075 260078=
44066 19151 99396 70726 46/// /2810 10044 21037 40185 52004 91450 22200 00093 10603 20603 311// 40901 70015 333 91212 555 11101 22106 31406 42812 61449 278096 280096 279095 281098 279095 277096=
44072 19151 99372 70763 46/// /2403 10010 91440 333 91204 555 11035 22038=
44088 19151 99366 70748 46/// ///// 1//// 91500 22200 00183 11103 21002 309// 41101 70013=
44090 19151 99418 70703 46/// ///// 1//// 91500 22200 00025 10401 20401 70006=
44091 19151 99398 70738 46/// ///// 1//// 91500 22200 00062 11001 21001 70007=
44095 19151 99358 70753 46/// ///// 1//// 91448 22200 00052 11102 308// 41102 70011=
44096 19151 99370 70758 46/// ///// 1//// 91451 22200 00033 11101 21001 70005=
44097 19151 99410 70711 46/// ///// 1//// 91443 22200 00057 10503 20503 316// 41201 70016=
44100 19151 99363 70756 46/// ///// 1//// 91445 22200 00062 11202 21001 308// 41201 70009=
46001 19151 99562 71479 46/// ///05 10032 49995 54000 91450 22200 00053 10905 20502 322// 40905 70027 333 91207 555 11057 22059 8//07 91410=
46002 19151 99426 71305 46/// /2910 10094 20053 30160 40164 91450 22200 11413 20805 330// 41411 70063 333 91213 555 11104 22111 8//12 91441=
46005 19151 99461 71311 46/// /2813 10070 30069 40073 91440 333 91218 555 11146 22156 8//15 91431=
46006 19151 99408 71374 46/// /3209 10087 30262 40266 91450 22200 00109 333 91212 555 11100 22106 8//10 91447=
46011 19151 99350 71210 46/// /3209 10135 40181 54000 91450 22200 00145 11609 20603 330// 41609 70047 333 91212 555 11099 22105 31406 43312 61449 323091 324093 327097 325095 328097 326096=
46012 19151 99374 71229 46/// /3505 10104 40194 53007 91450 22200 00133 11511 20401 329// 41511 70053 333 91206 555 11051 22053 31433 43111 61449 344049 332079 336073 300051 301054 307054=
46013 19151 99382 71233 46/// /3205 10117 20063 30194 40198 91450 22054 8//06 91445=
46014 19151 99394 71240 46/// /0802 1//// 30189 40193 91440 333 91204 555 11016 22017 8//02 91436=
46022 19151 99407 71245 46/// /2606 10102 20046 40177 53008 91450 253053=
46025 19151 99337 71191 46/// /0000 1//// 30154 40158 91440 22200 00163 333 91201 555 11002 22002 8//01 91431=
46026 19151 99378 71228 46/// /3304 10116 40196 53007 91450 22200 00120 11608 20401 328// 41608 70041 333 91205 555 11039 22040 31414 43008 61449 323040 303056 302050 303054 303053 307055=
46027 19151 99419 71244 46/// /2506 10090 40169 53012 91450 22200 00117 11509 20402 328// 41509 70046 333 91207 555 11057 22060 31433 42611 61449 251056 257085 242056 223046 229051 229053=
46028 19151 99357 71219 46/// /3409 10133 40188 54000 91450 22200 00140 11509 20803 331// 41509 70046 333 91211 555 11092 22097 31410 43312 61449 337085 336089 331090 335092 334087 335088=
46029 19151 99461 71245 46/// /2211 10094 20050 40096 53012 91450 22200 00106 11510 20705 327// 41509 70050 333 91213 555 11113 22120 31409 42213 61449 215105 215102 214101 217099 216107 224108 82212 91409=
46035 19151 99570 71777 46/// ///// 1//// 40193 53019 91450 22200 11205 70026=
46041 19151 99474 71247 46/// /1911 10093 40064 53006 91450 22200 00103 11510 20605 327// 41509 70052 333 91213 555 11114 22121 31431 42013 61449 193106 196110 197110 194105 196109 191098=
46042 19151 99368 71224 46/// /3205 10126 40195 53005 91450 22200 00135 11611 20501 330// 41611 70055 333 91208 555 11057 22059 31418 43008 61449 318055 321056 312055 325058 340057 330056=
46047 19151 99324 71195 46/// ///// 10146 40172 55000 91450 22200 00157 11608 70038=
46050 19151 99447 71245 46/// /2208 10099 20050 30125 40129 53012 91500 22200 00110 333 91211 555 11091 22097 8//09 91455=
46053 19151 99343 71199 46/// /2907 10156 20123 30162 40166 55000 91500 22200 00162 333 91209 555 11081 22086 8//08 91459=
46054 19151 99343 71205 46/// /3211 10137 30165 40169 55000 91500 22200 00146 333 91213 555 11118 22126 8//12 91452=
46059 19151 99381 71300 46/// /3007 10096 20053 30217 40221 91440 22200 00147 333 91210 555 11074 22079 8//09 91432=
46060 19151 99606 71468 46/// /0905 10028 40002 52007 91450 22200 00052 11101 317// 41101 70004 333 91206 555 11051 22053 31356 40706 61449 087047 081040 083041 084042 083043 071049 80706 91356=
46061 19151 99602 71468 46/// /0907 10026 49996 53009 91450 22200 00054 11504 20501 312// 41504 70019 333 91208 555 11073 22076 31445 41008 61449 095068 095068 091066 085067 092065 086063 80908 91443=
46066 19151 99528 71550 46/// ///// 10032 49893 56018 91450 22200 00047 10605 70026=
46069 19151 99337 71202 46/// /3213 10141 40162 56003 91450 22200 00143 11609 20604 329// 41609 70047 333 91215 555 11134 22143 31419 43115 61449 316123 312122 315118 314110 314120 316108=
46075 19151 99540 71608 46/// ///// 10004 40014 53020 91450 22200 00047 11504 70018=
46076 19151 99595 71480 46/// /3501 1//// 91450 22200 11604 20301 310// 41604 70020 333 91201 555 11007 22008 31400 40504 61449 354008 333010 001008 356008 013015 038022 80503 91400=
46078 19151 99556 71526 46/// ///// 10021 21030 49983 58013 91450 22200 11204 70022=
46081 19151 99608 71483 46/// /2601 11008 21010 40011 51011 91450 61449 259010 243005 277008 271013 266010 281009 82702 91450=
46082 19151 99597 71434 46/// ///// 11004 21005 40001 52006 91450 22200 00067 11404 70022 555 8//00 91418=
46083 19151 99583 71380 46/// /0000 10053 20002 40008 52012 91450 22200 00060 11104 20401 319// 41104 70020 333 91201 555 11004 22004 31351 43303 61449 075004 045004 356004 334006 322010 333014 83302 91351=
46085 19151 99559 71425 46/// /2705 10038 40025 51005 91450 22200 91359=
46086 19151 99325 71180 46/// /3302 10155 40167 54000 91450 22200 00167 11607 20401 328// 41607 70036 333 91204 555 11024 22024 31353 43106 61449 331024 340030 339027 340041 320042 317044=
46087 19151 99485 71247 46/// /1410 10073 20047 40054 54000 91450 143086=
46088 19151 99483 71232 46/// /1303 10065 20035 40075 52003 91450 83404 91414=
46108 19151 99596 71518 46/// ///// 1//// 91438 22200 00056 10501 20501 70003=
46114 19151 99367 71224 46/// ///// 1//// 91500 22200 00137 11511 20804 328// 41510 70055=
46120 19151 99478 71224 46/// /2307 10070 20039 40097 91431 555 11074 22080=
46211 19151 99469 71242 46/// ///// 1//// 91500 22200 00101 11511 21006 327// 41509 70053=
46214 19151 99379 71235 46/// ///// 1//// 91500 22200 00135 11511 21004 328// 41510 70056=
46215 19151 99352 71209 46/// ///// 1//// 91457 22200 00150 11407 20903 326// 41406 70033=
46217 19151 99342 71194 46/// ///// 1//// 91500 22200 00161 11404 20902 327// 41403 70020=
46218 19151 99345 71208 46/// ///// 1//// 91500 22200 00150 11710 21004 329// 41709 70048=
46219 19151 99332 71199 46/// ///// 1//// 91500 22200 00152 11708 21004 330// 41707 70038=
46221 19151 99339 71186 46/// ///// 1//// 91500 22200 00162 11503 21002 326// 41503 70016=
46222 19151 99336 71183 46/// ///// 1//// 91500 22200 00163 11704 21002 327// 41704 70020=
46224 19151 99332 71175 46/// ///// 1//// 91500 22200 00165 11403 20902 325// 41402 70013=
46229 19151 99438 71245 46/// ///// 1//// 91453 22200 00115 11411 21005 328// 41409 70053=
46232 19151 99325 71174 46/// ///// 1//// 91500 22200 00167 11706 21002 328// 41705 70028=
46239 19151 99363 71221 46/// ///// 1//// 91500 22200 00139 11510 20904 328// 41509 70048=
46240 19151 99366 71219 46/// ///// 1//// 91451 22200 00137 11205 21002 335// 41204 70025=
46244 19151 99409 71244 46/// ///// 1//// 91500 22200 00117 11512 21006 327// 41511 70062=
46248 19151 99461 71246 46/// ///// 1//// 91455 22200 00107 11410 20906 327// 41408 70052=
46253 19151 99336 71182 46/// ///// 1//// 91500 22200 00163 11703 21001 325// 41703 70015=
46256 19151 99337 71182 46/// ///// 1//// 91452 22200 00165 11403 21001 324// 41403 70015=
46258 19151 99328 71175 46/// ///// 1//// 91500 22200 00163 11505 21002 328// 41504 70023=
46259 19151 99347 71217 46/// ///// 1//// 91452 22200 00147 11511 21004 329// 41511 70057=
46262 19151 99337 71190 46/// ///// 1//// 91500 22200 00165 11705 21003 327// 41704 70023=
46263 19151 99394 71239 46/// ///// 1//// 91500 22200 00132 11410 20905 329// 41409 70052=
47003 32980 00000 11094 21101 30176 40180 53002=
47005 32470 81802 11111 21132 38542 58005 885//=
47008 32970 03201 11040 21052 30120 40170 58001=
47014 32965 00000 11187 21206 39807 40247 53013=
47016 32970 00000 11169 21187 39317 40158 52007=
47020 32570 30000 11115 21157 39839 40203 52009 83400=
47022 32970 00000 11094 21171 38776 54000=
47025 32960 00000 11016 21060 30148 40178 52001=
47028 32962 01802 11060 21090 30120 40210 57008=
47031 32570 33603 11071 21105 38912 52005 83400=
47035 32968 80501 11039 21054 30216 40225 52008 80002=
47037 32967 01401 11090 21134 30096 40227 52001=
47039 32565 80000 11038 21064 30034 40231 52003 87402=
47041 32970 02301 10008 21036 30174 40202 52010=
47046 32969 83202 11013 21078 30165 40188 52013 80002=
47050 32565 60000 11032 21054 30174 40210 52003 86500=
47052 32565 80000 11036 21060 39872 40222 54000 885//=
47055 32970 20000 10033 21103 30159 40205 57002 80001=
47058 31760 81801 10002 21025 30177 40223 52001 71022 8803/=
47060 32961 81401 10023 21014 30166 40225 54000 8803/=
47061 32980 03203 10027 21050 30158 40203 54000=
47065 32570 60000 11004 21041 30158 40224 5//// 86500=
47067 32960 00000 11014 21047 30127 40251 57004=
47068 32560 80000 11002 21027 30193 40229 53004 885//=
47069 32560 80000 10002 21025 30128 40230 54000 885//=
47070 32966 00000 11025 21058 30156 40246 52003=
47075 32980 02303 11035 21064 39816 40262 54000=
48650 41457 70504 10260 20233 30078 40097 71322 83942 333 81917 84364 86078=
48806 32998 00000 10160 20140 39391 40173 52014 333 58012=
48845 32498 80000 10202 20179 30155 40162 50008 888// 333 58009 83894 88697=
48870 32498 83403 10236 20208 30127 40134 51006 888// 333 58007 84894 88696=
48877 32598 43405 10249 20217 30119 40124 50005 84900 333 58005 82895 82996=
48887 32598 60703 10269 20196 30099 40105 51012 82208 333 58007 82895 86299=
48920 41998 63605 10259 20250 30094 40097 50010 72582 80008 333 58004 86299=



SMUS40 KWBC 191500
AAXX 19154
40250 41657 61422 10120 20017 39264 40060 52020 70721 86800 333 83830 84635=
40260 41558 22625 10070 20023 39326 40118 52036 70721 82500 333 82635=
40265 42660 52708 10072 20028 39347 40157 52031 85800 333 82830 84635=
40270 41540 62715 10074 20028 39233 40147 52036 71062 86800 333 83820 83630=
40310 42560 42109 10072 21015 39004 48543 54003 84200 333 84825=
40357 41/08 92824 10126 20060 39466 40108 70700 333 59016 8////=
40360 41958 02422 10100 20020 39530 40128 70700 333 58027=
40361 41/03 92923 10115 20000 39363 40139 73000 333 58010 8////=
40362 41905 02916 10151 21070 39602 40120 70733 333 59010=
40373 41935 43315 10232 20020 39687 40103 70700 84030 333 59041 84360=
40375 42960 03316 10122 21050 39260 40139 333 58028=
40394 31916 02918 10190 21010 38975 48455 70600 333 59031 555 04410 50095=
40400 41630 53018 10198 20100 30129 40157 70700 85500 333 58032 85640=
40420 42960 21408 10209 21020 39936 40146 82030 333 59016 82360=
40430 42960 02311 10223 20000 39395 40108 333 58008=
40435 41957 02114 10220 20020 39078 40135 70070 333 59018=
40437 41957 01808 10211 21060 39434 40136 70600 333 59010=
41030 42960 03604 10271 20110 39854 40127 333 58022=
41036 42960 02616 10166 20070 38560 48509 333 58014 555 04410 50139=
41055 42560 22506 10170 20100 38365 48513 82400 333 58017 82630 555 04410 50153=
41061 42960 01206 10223 20070 39420 40129 333 59003=
41084 42960 02705 10211 20110 38853 48504 333 58019 555 04410 50134=
41112 19151 99307 70813 46/// ///// 1//// 91500 22200 00092 11201 21001 308// 41201 70007=
41114 19151 99276 70802 46/// ///// 1//// 91500 22200 00175 11003 21003 305// 41101 70016=
41128 42560 41006 10266 20000 38782 48488 81430 333 59014 81630 84360 555 04410 50106=
41136 42960 00000 10283 20080 39299 40106 333 59018=
41140 42960 32310 10266 20200 30124 40133 82032 333 58015 82360=
41216 42960 03505 10202 20135 30166 40170 333 58000=
41217 42960 03407 10204 20142 30137 40166 333 58000=
42056 19151 99199 70849 46/// /0508 10235 20174 30216 40220 91440 22200 00263 333 91211 555 11091 22097 8//10 91431=
42059 19151 99153 70675 46/// /0807 10273 20244 30167 40171 91450 22079 8//08 91442=
42071 31995 00000 10130 20077 40173 70500 333 58014=
42097 19151 99257 70837 46/// ///// 1//// 91500 22200 00223 10702 20702 70009=
42099 19151 99273 70843 46/// ///// 1//// 91500 22200 00209 10401 20401 70007=
42101 32996 23202 10156 20107 40164 80001 333 58015 82070=
42103 31995 02702 10164 20095 40164 70500 333 58013=
42111 31995 00000 10120 20094 39435 40154 71000 333 58008=
42123 31994 00000 10150 20092 40179 70500 333 58024=
42131 31994 00000 10124 20109 40180 71000 333 58019=
42165 31995 00000 10150 20012 40175 70500 333 58023=
42181 31993 02704 10162 20137 40173 71100 333 58018=
42189 31995 00000 10130 20119 40155 71000 333 58010=
42273 31994 00000 10134 20119 40154 71000 333 58008=
42309 31595 63202 10198 20168 40144 71022 82530 333 58002=
42314 31595 60000 10178 20151 40156 71022 83530 333 58004 83620 85360=
42339 31995 03202 10200 20030 40170 70500 333 58023=
42348 31995 03405 10212 20053 40157 70500 333 58014=
42361 31995 00000 10170 20111 40158 70500 333 58009=
42379 31/91 90000 10118 20094 40160 74342 89/// 333 58006=
42410 31495 50000 10184 20164 40148 71022 82530 333 58003 82618 84360=
42415 31995 30000 10172 20155 40152 71000 80002 333 58001 83075=
42452 32996 00000 10208 20110 40152 333 58010=
42492 31994 00502 10122 20114 40152 71000 333 58002=
42498 31993 00000 10130 20123 40164 74644 333 58001=
42503 31994 03201 10146 20124 40158 71000 333 59004=
42516 31495 50000 10110 20099 38419 48516 70522 83430 333 58009=
42559 32996 00000 10200 20109 40149 333 58007=
42571 32996 00000 10184 20102 40154 333 58004=
42587 31995 00000 10148 20094 4016/ 70500 333 58008=
42591 31994 00000 10142 20104 40156 71000 333 58000=
42623 31496 22301 10148 20138 39264 40148 71000 82500 333 58004 82618=
42631 32996 00000 10200 20071 40160 333 58013=
42634 32996 00000 10222 20119 40155 333 58015=
42647 31996 00000 10188 20128 40156 70500 333 58021=
42667 32996 01405 10194 20106 39563 40157 333 58009=
42671 32996 00000 10186 20104 39533 40161 333 58012=
42693 32996 00000 10168 20087 39468 40163 333 58006=
42706 31995 00000 10160 20112 40117 70500 333 58008=
42724 31995 00000 10170 20153 40146 71000 333 58007=
42730 32996 03601 10220 20153 40165 333 58014=
42731 32996 00204 10272 20101 40143 333 58004=
42737 32996 00703 10218 20065 40156 333 58012=
42748 32996 03206 10224 20113 40145 333 58010=
42754 31996 00701 10216 20125 39509 40147 70500 333 58008=
42779 32996 00000 10174 20090 39454 40163 333 58005=
42798 31995 00000 10152 20090 40147 70500 333 58013=
42809 31995 00000 10146 20104 40149 70500 333 58005=
42830 31996 00000 10212 20140 40154 70500 333 58012=
42840 32996 00503 10232 20115 40148 333 58009=
42886 32996 00000 10190 20082 40160 333 58021=
42895 31995 00000 10180 20126 40146 70500 333 58010=
42901 32996 00000 10160 20143 40145 333 58009=
42909 32996 03602 10236 20182 40147 333 58012=
42921 32996 02702 10222 20120 40143 333 58007=
42971 31995 01604 10180 20134 40148 70500 333 58008=
42973 31995 00000 10182 20155 40152 70500 333 58008=
43003 31995 03206 10266 20102 40131 70400 333 58013=
43014 31995 00000 10214 20134 39484 40133 70544 333 58003=
43041 32996 00000 10184 20093 39528 40154 333 58007=
43049 32996 00000 10212 20177 40149 333 58009=
43053 32996 01603 10234 20154 40148 333 58009=
43063 32996 20000 10202 20124 39507 40136 80001 333 58007 82070=
43086 32996 00000 10200 20100 39958 40139 333 58008=
43105 32596 30000 10236 20192 30139 40146 82501 333 58011=
43117 32996 00000 10240 20032 40128 333 58002=
43128 31996 20000 10216 20100 39531 40143 70511 80001 333 58011 82070=
43147 32996 00000 10240 20190 30130 40152 333 58014=
43150 31996 00000 10230 20179 30083 40158 70500 333 58011=
43181 31996 00000 10224 20185 30111 40139 70500 333 58010=
43185 31996 20000 10232 20195 30132 40136 70500 80001 333 58007 82070=
43187 32596 10000 10234 20197 30136 40147 81500 333 58013=
43189 32996 00000 10238 20191 30134 40143 333 58010=
43192 32996 33602 10266 20212 40118 80002 333 58008=
43198 32996 10000 10214 20088 39299 40126 80001 333 58005 81075=
43201 32996 30903 10224 20092 39407 40127 80002 333 58007 83075=
43213 32996 00000 10252 20128 39809 40126 333 58005=
43220 32996 01402 10236 20185 30130 40137 333 58010=
43221 32596 20000 10246 20190 30129 40142 82500 333 58008=
43226 32996 00901 10250 20204 30088 40117 333 58006=
43233 32996 00000 10226 20095 39319 40128 333 58008=
43237 32996 10903 10230 20103 39736 40132 80001 333 58009 81070=
43243 32996 00000 10240 20197 30121 40146 333 58013=
43279 32596 50204 10248 20174 30131 40149 84501 333 58008 84620=
43295 32996 20905 10208 20093 39114 48519 80001 333 58006 82075=
43311 32596 60000 10270 20241 40111 83530 333 58010 83620 85360=
43314 32596 20000 10276 20223 40113 81402 333 58012=
43321 31496 40504 10244 20099 39683 40132 70522 81501 333 58012 81615 83070=
43329 32996 00000 10234 20180 30123 40137 333 58008=
43333 31595 20705 10256 20217 40112 70511 81101 333 59002 81822=
43344 32496 20902 10240 20169 30027 40128 81501 333 58001 81618=
43346 32496 60508 10250 20187 30120 40128 84501 333 58004 84618=
43347 32596 30504 10252 20172 30115 40126 82501 333 58000=
43348 32596 40000 10230 20199 30126 40133 81501 333 58002=
43361 32596 20000 10250 20207 30126 40132 81501 333 85011=
43363 32996 30504 10260 20199 30118 40131 80001 333 59001=
43369 32596 30000 10272 20237 40114 82501 333 58009 82620=
43371 32596 42703 10264 20203 30042 40115 82501 333 58016 82618 83075=
43377 32996 20510 10260 20199 30079 40120 80002 333 58010=
43555 41457 70914 10278 20220 30116 40118 70522 82208 333 58009 82818 87275=
43577 41458 60208 10280 20229 30112 40114 70522 82202 333 58006 82818 86077=
43599 41456 70504 10286 20237 30108 40110 70522 82202 333 58001 82818 87076=
45032 36/// /0703 10189 20171 30158 40175 57001=
45035 36/// /0402 10188 20173 30134 40176 54000=
45039 36/// /9901 10196 20168 30160 40175 57001=
45044 36/// /0903 10182 20167 30079 40172 57001=
47402 45/70 /2407 11075 21100 30170 40181 58004 555 19093=
47404 47/70 /0703 11040 21066 30166 40178 58009 72470 555 19076=
47411 47/70 /2305 11028 21075 30155 40189 58008 72470 555 19075=
47413 47/70 /0903 11049 21064 30124 40190 58006 72470 555 19066=
47417 46/// /2004 11105 21139 30125 40183 50000 555 19043=
47423 46/// /3305 11017 21091 30128 40192 58007=
47424 45/68 /0503 11059 21085 30184 40194 58005 555 19002=
47428 45/70 /2908 11003 21082 30181 40196 58010 555 19005=
47433 47/70 /2106 11047 21084 39953 40193 58007 72470 555 19137=
47435 45/70 /2301 11054 21077 30161 40184 58002 555 19039=
47440 45/65 /2703 11088 21107 30143 40188 51002 555 19039=
47512 45/70 /3402 11015 21085 30152 40201 57009=
47520 45/70 /1503 11045 21059 30080 40211 58009 555 19061=
47574 45/70 /2004 11008 21065 30115 40201 57012=
47576 45/70 /0201 11006 21066 30189 40195 56008 555 19005=
47588 46/// /1305 11021 21046 30016 40211 58010 555 19014=
47592 45/70 /3406 11016 21060 30148 40203 55005=
47595 46/// /0101 11001 21033 30115 40203 58002=
47597 45/65 /0000 11010 21043 39757 40201 58006=
47606 45/70 /2404 10007 21014 30177 40194 58012 555 19015=
47607 46/// /2503 10010 21004 30173 40195 58013 555 19006=
47610 46/// /2101 11006 21028 39683 40203 58010=
47615 46/// /0307 10029 21041 30021 40196 58003=
47616 46/// /1903 10006 21004 30173 40195 58011 555 19017=
47617 45/67 /3302 11018 21031 39521 40213 58007=
47620 45/70 /2202 10000 21034 39275 40193 58007=
47622 45/67 /2202 11023 21038 39004 48455 58007=
47626 46/// /0804 10058 21046 30155 40194 51004=
47629 46/// /3505 10024 21027 30153 40192 58005=
47631 45/69 /1406 10020 21011 30178 40194 58007=
47632 46/// /3102 10037 21033 30163 40185 58006=
47637 45/70 /1302 10020 21007 39551 40194 55000=
47640 45/61 /1602 11010 21021 39164 48457 56003=
47641 45/70 /2201 10051 20012 39902 40189 52003=
47649 45/64 /1703 10000 21017 39996 40198 58003=
47651 46/// /2503 10050 21030 30161 40184 58003=
47653 45/66 /3503 10060 20021 30171 40181 58003=
47654 47/70 /3205 10082 20000 30118 40177 52001 70060=
47656 46/// /3103 10080 20042 30156 40176 56003=
47657 45/70 /1002 10069 20028 30152 40179 56004=
47666 45/70 /0603 10097 20051 30104 40169 56003=
47668 45/70 /0208 10081 20032 30096 40180 57005=
47670 46/// /0606 10079 20006 30130 40183 56007=
47672 47/70 /0505 10085 20023 30167 40176 56006 70060=
47674 47/70 /0307 10090 20026 30161 40178 56008 70060=
47677 47/57 /0518 10118 20102 30109 40157 56003 76166=
47682 45/70 /0608 10066 21013 30175 40183 58009=
47684 45/70 /3302 10029 21024 30112 40183 58006=
47690 45/61 /2406 11025 21042 38682 48460 58005=
47742 47/56 /2801 10061 20048 30182 40187 56007 72360=
47744 47/59 /1802 10067 20031 30178 40188 56005 71000=
47747 45/64 /1504 10029 20020 30189 40196 58007=
47750 45/64 /2502 10025 20015 30192 40197 56006=
47754 47/50 /1708 10051 20033 30193 40198 53002 71000=
47756 47/32 /2202 10032 20028 30011 40195 58001 71000=
47759 46/// /0403 10040 21004 30127 40193 58003=
47761 46/// /1603 10027 21002 30075 40191 58008=
47766 47/50 /0503 10059 20034 30191 40197 53005 71000=
47767 47/45 /2601 10031 20025 30189 40193 56002 71000=
47768 46/// /0902 10040 20027 30185 40194 57002=
47769 45/63 /3202 10048 20025 30144 40193 57004=
47770 46/// /0903 10069 21001 30154 40192 58001=
47776 45/62 /2101 10039 20030 30105 40188 58002=
47777 46/// /0806 10055 20012 30167 40190 50000=
47780 46/// /1104 10028 20001 30062 40192 58004=
47784 47/37 /0502 10036 20033 30177 40202 53003 71000=
47805 47/58 /2702 10066 20031 30135 40207 51008 71000=
47809 47/25 /2101 10039 20038 30154 40201 50003 71000=
47812 47/56 /1101 10057 20030 30202 40209 53008 71000=
47813 46/// /3001 10056 20036 30166 40207 53007=
47814 47/50 /0803 10044 20034 30104 40209 50004 71000=
47818 47/09 /2807 10009 20009 39397 40220 53004 73230=
47822 47/58 /2904 10050 20030 30169 40195 52002 71000=
47823 47/57 /1107 10068 20036 30150 40202 53001 71000=
47824 47/44 /0301 10023 20019 30029 40213 51008 71000=
47829 47/56 /3602 10040 20019 30008 40201 58001 71000=
47831 47/50 /3607 10064 20052 30162 40201 55000 71000=
47835 45/64 /3011 10067 20022 30171 40189 55001=
47836 47/58 /2909 10126 20071 30149 40195 55000 70400=
47838 47/56 /3301 10067 20049 30185 40203 53002 71000=
47890 47/43 /0702 10056 20033 30187 40194 56003 71000=
47892 47/56 /1403 10047 20032 30180 40198 51007 71000=
47893 46/// /2804 10076 20042 30176 40182 58001=
47895 46/// /2201 10058 20033 30184 40192 58001=
47897 47/57 /1202 10053 20027 30176 40190 51001 71000=
47912 47/63 /0412 10215 20191 30136 40178 56002 70060=
47917 47/70 /0610 10210 20182 30161 40174 56003 72360=
47929 47/68 /0908 10175 20162 30179 40186 54000 72360=
47942 47/65 /0904 10176 20131 30155 40190 58002 72360=
47991 46/// /0810 10234 20176 30131 40141 58013=
48601 41558 70603 10253 20239 30092 40096 70596 82531 333 82625 83364 87077=
48615 41562 71101 10261 20243 30100 40106 70122 82532 333 82620 83364 87078=
48620 41257 83602 10256 20246 30093 40102 71722 86947 333 82705 81917 84628 88276=
48647 41340 70100 10251 20239 30078 40103 52021 71362 83952 333 81708 81917 84364 87077=
48657 41562 70303 10252 20239 30085 40103 70522 82532 333 82624 86078=